createdAt,value
2023-01-27T00:01:36.923Z,43.30
2023-01-27T00:04:05.658Z,50.20
2023-01-27T00:06:36.368Z,49.80
2023-01-27T00:09:06.779Z,54.30
2023-01-27T00:11:53.743Z,53.50
2023-01-27T00:14:21.754Z,53.50
2023-01-27T00:16:49.852Z,51.00
2023-01-27T00:19:20.012Z,50.30
2023-01-27T00:22:06.728Z,64.90
2023-01-27T00:24:37.573Z,58.40
2023-01-27T00:27:09.001Z,59.90
2023-01-27T00:29:42.021Z,42.40
2023-01-27T00:32:29.028Z,55.10
2023-01-27T00:34:57.163Z,56.30
2023-01-27T00:37:25.185Z,57.90
2023-01-27T00:39:53.469Z,58.50
2023-01-27T00:42:21.621Z,52.50
2023-01-27T00:45:09.743Z,54.90
2023-01-27T00:47:38.472Z,47.20
2023-01-27T00:50:08.159Z,49.50
2023-01-27T00:52:36.813Z,51.40
2023-01-27T00:55:05.118Z,51.40
2023-01-27T00:57:33.765Z,48.50
2023-01-27T01:00:02.066Z,43.10
2023-01-27T01:02:32.175Z,51.80
2023-01-27T01:05:00.195Z,53.20
2023-01-27T01:07:31.946Z,49.70
2023-01-27T01:09:59.985Z,46.10
2023-01-27T01:12:28.863Z,56.30
2023-01-27T01:14:56.985Z,56.20
2023-01-27T01:17:25.490Z,47.30
2023-01-27T01:19:53.605Z,55.10
2023-01-27T01:22:21.615Z,50.90
2023-01-27T01:24:50.199Z,46.70
2023-01-27T01:27:18.398Z,50.30
2023-01-27T01:29:46.635Z,51.90
2023-01-27T01:32:14.835Z,43.20
2023-01-27T01:34:43.330Z,41.40
2023-01-27T01:37:11.316Z,49.60
2023-01-27T01:39:39.735Z,44.80
2023-01-27T01:42:07.920Z,48.70
2023-01-27T01:44:37.173Z,51.50
2023-01-27T01:47:05.459Z,58.30
2023-01-27T01:49:37.928Z,47.50
2023-01-27T01:52:16.766Z,54.70
2023-01-27T01:54:53.913Z,56.30
2023-01-27T01:57:25.327Z,53.40
2023-01-27T01:59:56.209Z,48.30
2023-01-27T02:02:26.054Z,58.00
2023-01-27T02:05:18.943Z,50.80
2023-01-27T05:45:43.508Z,88.80
2023-01-27T05:48:11.629Z,83.10
2023-01-27T05:50:40.429Z,79.90
2023-01-27T05:53:08.724Z,82.80
2023-01-27T05:55:37.895Z,74.80
2023-01-27T05:58:08.683Z,70.00
2023-01-27T06:00:37.558Z,72.00
2023-01-27T06:03:06.498Z,61.20
2023-01-27T06:05:34.853Z,62.40
2023-01-27T06:08:03.668Z,67.20
2023-01-27T06:10:32.543Z,69.20
2023-01-27T06:13:00.898Z,68.40
2023-01-27T06:15:29.184Z,54.30
2023-01-27T06:17:57.301Z,65.10
2023-01-27T06:20:25.670Z,57.10
2023-01-27T06:22:53.883Z,56.80
2023-01-27T06:25:21.868Z,54.00
2023-01-27T06:27:55.041Z,64.80
2023-01-27T06:30:24.272Z,62.40
2023-01-27T06:32:52.532Z,57.70
2023-01-27T06:35:24.459Z,68.70
2023-01-27T06:37:52.823Z,63.00
2023-01-27T06:40:21.237Z,66.00
2023-01-27T06:42:49.204Z,64.30
2023-01-27T06:45:17.498Z,55.10
2023-01-27T06:47:45.967Z,52.30
2023-01-27T06:50:14.568Z,54.40
2023-01-27T06:52:43.487Z,65.80
2023-01-27T06:55:11.505Z,55.60
2023-01-27T06:57:41.181Z,55.30
2023-01-27T07:00:12.365Z,53.50
2023-01-27T07:02:43.428Z,56.60
2023-01-27T07:05:12.008Z,57.40
2023-01-27T07:07:40.099Z,62.40
2023-01-27T07:10:09.706Z,55.30
2023-01-27T07:12:38.363Z,51.10
2023-01-27T07:15:07.483Z,46.50
2023-01-27T07:17:37.136Z,61.90
2023-01-27T07:20:07.163Z,52.30
2023-01-27T07:22:35.787Z,49.10
2023-01-27T07:25:05.028Z,53.30
2023-01-27T07:27:34.746Z,51.50
2023-01-27T07:30:02.725Z,45.80
2023-01-27T07:32:30.846Z,45.90
2023-01-27T07:34:58.926Z,52.10
2023-01-27T07:37:27.069Z,43.60
2023-01-27T07:39:55.125Z,49.70
2023-01-27T07:42:23.480Z,46.80
2023-01-27T07:44:51.870Z,49.20
2023-01-27T07:47:19.960Z,46.30
2023-01-27T07:49:48.721Z,45.70
2023-01-27T07:52:17.621Z,41.70
2023-01-27T07:54:45.652Z,44.10
2023-01-27T07:57:13.650Z,46.00
2023-01-27T07:59:41.746Z,46.00
2023-01-27T08:02:11.095Z,51.60
2023-01-27T08:04:52.164Z,49.10
2023-01-27T08:07:21.243Z,44.10
2023-01-27T08:09:49.233Z,43.70
2023-01-27T08:12:17.512Z,43.80
2023-01-27T08:14:45.529Z,45.60
2023-01-27T08:17:13.524Z,45.20
2023-01-27T08:19:41.808Z,41.20
2023-01-27T08:22:09.858Z,41.10
2023-01-27T08:24:38.070Z,33.90
2023-01-27T08:27:08.208Z,41.30
2023-01-27T08:29:36.383Z,44.40
2023-01-27T08:32:05.152Z,37.10
2023-01-27T08:34:33.853Z,47.50
2023-01-27T08:37:01.982Z,41.40
2023-01-27T08:39:30.723Z,39.00
2023-01-27T08:41:58.916Z,43.80
2023-01-27T08:44:28.438Z,39.60
2023-01-27T08:46:56.463Z,40.30
2023-01-27T08:49:24.912Z,45.50
2023-01-27T08:51:53.230Z,40.30
2023-01-27T08:54:21.335Z,43.70
2023-01-27T08:56:52.008Z,38.50
2023-01-27T08:59:21.926Z,37.40
2023-01-27T09:01:50.360Z,40.50
2023-01-27T09:04:18.568Z,43.80
2023-01-27T09:06:48.435Z,47.70
2023-01-27T09:09:17.922Z,41.20
2023-01-27T09:11:47.401Z,40.50
2023-01-27T09:14:15.895Z,46.10
2023-01-27T09:16:47.478Z,46.80
2023-01-27T09:19:16.088Z,41.20
2023-01-27T09:21:44.947Z,38.60
2023-01-27T09:24:18.122Z,54.80
2023-01-27T09:26:48.702Z,46.40
2023-01-27T09:29:16.667Z,51.80
2023-01-27T09:31:44.990Z,53.50
2023-01-27T09:34:13.241Z,57.50
2023-01-27T09:36:45.919Z,54.80
2023-01-27T09:39:14.724Z,52.40
2023-01-27T09:41:52.077Z,57.80
2023-01-27T13:55:47.052Z,43.40
2023-01-27T13:58:37.846Z,48.70
2023-01-27T14:01:17.665Z,40.20
2023-01-27T14:03:57.993Z,44.00
2023-01-27T14:06:38.647Z,40.50
2023-01-27T14:09:21.987Z,38.40
2023-01-27T14:11:56.255Z,31.00
2023-01-27T14:14:58.076Z,33.30
2023-01-27T14:17:44.927Z,36.50
2023-01-27T14:20:24.894Z,49.30
2023-01-27T14:23:20.789Z,45.70
2023-01-27T14:26:31.375Z,40.30
2023-01-27T14:29:14.514Z,45.20
2023-01-27T14:32:01.697Z,42.80
2023-01-27T14:35:22.385Z,41.60
2023-01-27T14:37:53.933Z,38.00
2023-01-27T14:40:28.651Z,39.80
2023-01-27T14:43:12.185Z,43.50
2023-01-27T14:45:44.284Z,39.10
2023-01-27T14:48:36.987Z,46.60
2023-01-27T14:51:16.821Z,36.80
2023-01-27T14:54:23.901Z,39.10
2023-01-27T14:57:05.788Z,44.80
2023-01-27T14:59:47.298Z,43.50
2023-01-27T15:02:30.933Z,42.40
2023-01-27T15:05:11.663Z,54.50
2023-01-27T15:07:55.867Z,55.10
2023-01-27T15:10:28.732Z,55.60
2023-01-27T15:13:18.680Z,50.80
2023-01-27T15:15:53.742Z,54.10
2023-01-27T15:18:27.743Z,39.10
2023-01-27T15:21:17.611Z,42.70
2023-01-27T15:23:58.365Z,36.00
2023-01-27T15:26:27.106Z,42.20
2023-01-27T15:28:55.051Z,43.10
2023-01-27T15:31:26.541Z,43.00
2023-01-27T15:34:22.139Z,40.70
2023-01-27T15:37:10.009Z,45.50
2023-01-27T15:40:03.898Z,48.60
2023-01-27T15:42:52.589Z,40.40
2023-01-27T15:45:37.140Z,41.70
2023-01-27T15:48:14.429Z,43.90
2023-01-27T15:50:48.036Z,40.70
2023-01-27T15:53:38.396Z,42.30
2023-01-27T15:56:09.925Z,49.80
2023-01-27T15:58:42.773Z,45.10
2023-01-27T16:01:23.009Z,46.90
2023-01-27T16:03:52.968Z,40.20
2023-01-27T16:06:25.747Z,40.40
2023-01-27T16:08:59.242Z,40.60
2023-01-27T16:11:30.173Z,35.00
2023-01-27T16:14:17.110Z,39.80
2023-01-27T16:17:02.795Z,40.40
2023-01-27T16:19:37.175Z,39.90
2023-01-27T16:22:17.438Z,38.30
2023-01-27T16:24:58.872Z,41.40
2023-01-27T16:27:35.551Z,40.00
2023-01-27T16:30:21.821Z,40.20
2023-01-27T16:33:07.003Z,37.70
2023-01-27T16:35:43.116Z,33.40
2023-01-27T16:38:16.878Z,40.00
2023-01-27T16:40:51.263Z,40.40
2023-01-27T16:43:25.519Z,38.30
2023-01-27T16:45:54.085Z,39.30
2023-01-27T16:48:22.435Z,39.60
2023-01-27T16:50:50.510Z,38.40
2023-01-27T16:53:23.034Z,38.80
2023-01-27T16:55:57.917Z,44.30
2023-01-27T16:58:39.707Z,34.50
2023-01-27T17:01:27.353Z,37.20
2023-01-27T17:04:04.802Z,31.70
2023-01-27T17:06:37.292Z,38.00
2023-01-27T17:09:25.591Z,30.80
2023-01-27T17:11:55.670Z,32.60
2023-01-27T17:14:36.327Z,31.30
2023-01-27T17:17:19.155Z,37.30
2023-01-27T17:19:49.559Z,32.30
2023-01-27T17:22:22.952Z,36.20
2023-01-27T17:25:02.750Z,33.20
2023-01-27T17:27:34.881Z,35.00
2023-01-27T17:30:14.608Z,36.30
2023-01-27T17:32:50.682Z,39.30
2023-01-27T17:35:30.766Z,38.60
2023-01-27T17:38:15.410Z,40.40
2023-01-27T17:40:47.567Z,34.90
2023-01-27T17:43:35.504Z,42.40
2023-01-27T17:46:23.688Z,48.50
2023-01-27T17:48:55.072Z,49.40
2023-01-27T17:51:28.473Z,42.40
2023-01-27T17:53:56.628Z,41.00
2023-01-27T17:56:30.776Z,39.70
2023-01-27T17:59:05.711Z,39.40
2023-01-27T18:01:34.435Z,36.20
2023-01-27T22:01:07.770Z,77.10
2023-01-27T22:03:35.452Z,68.70
2023-01-27T22:06:08.159Z,73.50
2023-01-27T22:08:36.031Z,67.90
2023-01-27T22:11:07.279Z,67.60
2023-01-27T22:13:34.222Z,58.80
2023-01-27T22:16:01.309Z,48.00
2023-01-27T22:18:28.837Z,55.00
2023-01-27T22:20:56.075Z,49.70
2023-01-27T22:23:24.051Z,48.80
2023-01-27T22:25:51.392Z,60.60
2023-01-27T22:28:19.061Z,52.70
2023-01-27T22:30:45.771Z,44.70
2023-01-27T22:33:13.050Z,46.40
2023-01-27T22:35:39.899Z,44.40
2023-01-27T22:38:06.531Z,51.40
2023-01-27T22:40:37.261Z,53.90
2023-01-27T22:43:09.616Z,49.70
2023-01-27T22:45:39.608Z,52.20
2023-01-27T22:48:08.042Z,50.80
2023-01-27T22:50:36.144Z,51.20
2023-01-27T22:53:04.749Z,46.90
2023-01-27T22:55:31.803Z,54.20
2023-01-27T22:58:01.291Z,55.10
2023-01-27T23:00:28.583Z,45.40
2023-01-27T23:02:55.541Z,41.80
2023-01-27T23:05:22.297Z,48.40
2023-01-27T23:07:49.533Z,38.40
2023-01-27T23:10:16.659Z,61.50
2023-01-27T23:12:43.432Z,48.50
2023-01-27T23:15:10.308Z,49.10
2023-01-27T23:17:36.974Z,47.40
2023-01-27T23:20:04.523Z,52.50
2023-01-27T23:22:31.902Z,45.50
2023-01-27T23:24:58.670Z,41.40
2023-01-27T23:27:27.861Z,46.50
2023-01-27T23:29:54.881Z,46.80
2023-01-27T23:32:21.646Z,50.50
2023-01-27T23:34:48.358Z,49.00
2023-01-27T23:37:15.641Z,49.20
2023-01-27T23:39:47.830Z,46.40
2023-01-27T23:42:16.089Z,41.50
2023-01-27T23:44:43.236Z,44.60
2023-01-27T23:47:10.605Z,48.80
2023-01-27T23:49:39.810Z,42.70
2023-01-27T23:52:06.773Z,48.40
2023-01-27T23:54:33.678Z,45.70
2023-01-27T23:57:03.141Z,53.80
2023-01-27T23:59:30.508Z,44.40
